Time;durP1;ratioP1;P1;durP2;ratioP2;P2;SDS_P1;SDS_P2;PMS_P1;PMS_P2;Temp;Humidity;BMP_temperature;BMP_pressure;BME280_temperature;BME280_humidity;BME280_pressure;Samples;Min_cycle;Max_cycle;Signal;HPM_P1;HPM_P2
2023/01/15 00:00:51;;;;;;;2.70;1.90;;;16.00;59.30;;;;;;5060810;28;20321;-64
2023/01/15 00:03:17;;;;;;;2.75;1.92;;;16.00;59.40;;;;;;5060838;28;20037;-64
2023/01/15 00:05:43;;;;;;;1.70;1.52;;;15.90;59.40;;;;;;5060721;28;20348;-64
2023/01/15 00:08:09;;;;;;;2.22;1.83;;;15.90;59.50;;;;;;5060751;28;20093;-65
2023/01/15 00:10:35;;;;;;;1.67;1.58;;;15.90;59.50;;;;;;5060666;28;20335;-64
2023/01/15 00:13:01;;;;;;;2.70;1.85;;;15.80;59.50;;;;;;5060673;28;20029;-64
2023/01/15 00:15:27;;;;;;;2.30;1.63;;;15.80;59.60;;;;;;5060543;28;20048;-65
2023/01/15 00:17:52;;;;;;;2.40;1.60;;;15.80;59.50;;;;;;5060511;28;20105;-64
2023/01/15 00:20:18;;;;;;;2.10;1.90;;;15.80;59.60;;;;;;5060486;28;20021;-63
2023/01/15 00:22:44;;;;;;;3.55;2.17;;;15.70;59.70;;;;;;5060457;28;20021;-65
2023/01/15 00:27:55;;;;;;;2.00;1.80;;;15.80;59.80;;;;;;5060420;28;20023;-64
2023/01/15 00:30:22;;;;;;;3.05;2.10;;;15.70;59.90;;;;;;5060246;28;20039;-64
2023/01/15 00:32:48;;;;;;;2.10;1.58;;;15.70;59.90;;;;;;5060372;28;20035;-64
2023/01/15 00:35:17;;;;;;;3.08;1.55;;;15.80;59.90;;;;;;5060155;28;20037;-64
2023/01/15 00:37:43;;;;;;;1.70;1.60;;;15.80;60.00;;;;;;5060237;28;20064;-65
2023/01/15 00:40:10;;;;;;;2.53;1.60;;;15.90;60.00;;;;;;5060233;28;20086;-64
2023/01/15 00:42:36;;;;;;;1.92;1.67;;;16.00;59.90;;;;;;5060079;28;20322;-65
2023/01/15 00:45:08;;;;;;;2.38;1.70;;;16.00;59.80;;;;;;5060124;28;20056;-64
2023/01/15 00:47:38;;;;;;;1.58;1.48;;;16.10;59.60;;;;;;5060175;28;20033;-65
2023/01/15 00:50:06;;;;;;;1.77;1.65;;;16.20;59.50;;;;;;5060043;28;20225;-66
2023/01/15 00:52:32;;;;;;;2.03;1.40;;;16.20;59.20;;;;;;5060240;28;20024;-65
2023/01/15 00:54:58;;;;;;;2.63;1.70;;;16.20;59.10;;;;;;5060222;28;20093;-65
2023/01/15 00:57:24;;;;;;;2.97;1.88;;;16.30;59.10;;;;;;5060262;28;20025;-66
2023/01/15 00:59:50;;;;;;;2.35;1.40;;;16.40;59.00;;;;;;5060399;28;20025;-65
2023/01/15 01:02:15;;;;;;;1.88;1.65;;;16.30;59.10;;;;;;5066626;28;20027;-65
2023/01/15 01:04:41;;;;;;;1.90;1.48;;;16.30;58.90;;;;;;5066832;28;20309;-65
2023/01/15 01:07:07;;;;;;;2.28;1.60;;;16.30;59.60;;;;;;5066870;28;20071;-66
2023/01/15 01:09:33;;;;;;;2.10;1.90;;;16.20;58.90;;;;;;5066731;28;20036;-65
2023/01/15 01:11:59;;;;;;;1.73;1.60;;;16.10;59.00;;;;;;5066719;28;20028;-65
2023/01/15 01:14:25;;;;;;;1.70;1.45;;;16.10;59.60;;;;;;5066620;28;20033;-66
2023/01/15 01:16:51;;;;;;;3.00;1.98;;;16.10;59.20;;;;;;5066664;28;20289;-65
2023/01/15 01:19:20;;;;;;;2.08;1.70;;;16.00;59.10;;;;;;5082411;28;20395;-65
2023/01/15 01:21:47;;;;;;;3.13;1.80;;;16.00;59.40;;;;;;5066601;28;20304;-65
2023/01/15 01:24:15;;;;;;;2.35;1.83;;;15.90;59.30;;;;;;5066615;28;20032;-65
2023/01/15 01:26:43;;;;;;;2.45;1.60;;;15.90;59.40;;;;;;5066668;28;20025;-65
2023/01/15 01:29:11;;;;;;;2.33;1.88;;;15.90;59.50;;;;;;5066434;28;20110;-65
2023/01/15 01:31:37;;;;;;;;;;;15.80;59.50;;;;;;5066725;28;20379;-65
2023/01/15 01:34:03;;;;;;;2.75;1.90;;;15.80;59.50;;;;;;5066351;28;19917;-65
2023/01/15 01:36:32;;;;;;;1.80;1.40;;;15.80;59.60;;;;;;5066452;28;20025;-65
2023/01/15 01:38:58;;;;;;;1.88;1.67;;;15.70;59.60;;;;;;5066408;28;20028;-65
2023/01/15 01:41:25;;;;;;;2.13;1.50;;;15.70;59.60;;;;;;5066368;28;20025;-65
2023/01/15 01:43:57;;;;;;;2.75;1.65;;;15.70;59.70;;;;;;5066380;28;20051;-65
2023/01/15 01:46:24;;;;;;;2.47;1.75;;;15.70;59.80;;;;;;5066382;28;20048;-66
2023/01/15 01:48:53;;;;;;;1.60;1.48;;;15.70;60.40;;;;;;5066302;28;20224;-65
2023/01/15 01:51:23;;;;;;;2.40;1.75;;;15.80;59.90;;;;;;5066463;28;20033;-65
2023/01/15 01:53:49;;;;;;;2.13;1.67;;;15.90;60.00;;;;;;5066264;28;20032;-65
2023/01/15 01:56:16;;;;;;;1.73;1.40;;;16.00;59.80;;;;;;5066265;28;20074;-66
2023/01/15 01:58:47;;;;;;;2.53;2.00;;;16.10;59.70;;;;;;5066281;28;20236;-64
2023/01/15 02:01:13;;;;;;;2.17;1.63;;;16.10;59.40;;;;;;5066251;28;20059;-66
2023/01/15 02:03:39;;;;;;;1.98;1.52;;;16.20;59.90;;;;;;5066139;28;20020;-65
2023/01/15 02:06:09;;;;;;;2.83;1.73;;;16.20;59.00;;;;;;5066127;28;20044;-64
2023/01/15 02:08:38;;;;;;;2.22;1.92;;;16.30;59.00;;;;;;5066037;28;20048;-64
2023/01/15 02:11:06;;;;;;;2.60;1.95;;;16.30;58.90;;;;;;5065997;28;20047;-64
2023/01/15 02:13:37;;;;;;;2.05;1.80;;;16.20;58.90;;;;;;5061874;28;20048;-65
2023/01/15 02:16:15;;;;;;;2.03;1.80;;;16.20;58.80;;;;;;5062850;28;20080;-65
2023/01/15 02:18:58;;;;;;;2.22;1.75;;;16.20;58.90;;;;;;5062914;28;20103;-64
2023/01/15 02:21:46;;;;;;;2.47;1.83;;;16.10;59.00;;;;;;5062807;28;20017;-65
2023/01/15 02:24:31;;;;;;;1.50;1.30;;;16.00;59.00;;;;;;5062729;28;20032;-64
2023/01/15 02:27:05;;;;;;;2.40;1.85;;;16.00;59.20;;;;;;5062889;28;20016;-65
2023/01/15 02:29:55;;;;;;;2.28;1.67;;;15.90;59.30;;;;;;5062853;28;20352;-65
2023/01/15 02:32:39;;;;;;;2.25;1.50;;;15.90;59.30;;;;;;5062693;28;20048;-65
2023/01/15 02:35:27;;;;;;;2.53;1.83;;;15.90;59.40;;;;;;5062525;28;20029;-65
2023/01/15 02:38:01;;;;;;;2.22;1.88;;;15.80;59.40;;;;;;5061973;28;20033;-66
2023/01/15 02:40:28;;;;;;;2.47;1.88;;;15.80;59.40;;;;;;5062472;28;20075;-65
2023/01/15 02:42:56;;;;;;;2.05;1.50;;;15.80;59.50;;;;;;5062449;28;20340;-65
2023/01/15 02:45:31;;;;;;;2.40;1.60;;;15.70;59.50;;;;;;5062372;28;20212;-65
2023/01/15 02:48:03;;;;;;;2.30;1.85;;;15.70;59.50;;;;;;5062276;28;20051;-65
2023/01/15 02:50:35;;;;;;;2.47;1.88;;;15.70;60.10;;;;;;5062245;28;20017;-65
2023/01/15 02:53:06;;;;;;;3.67;1.88;;;15.60;59.50;;;;;;5062160;28;20043;-64
2023/01/15 02:55:37;;;;;;;2.67;1.75;;;15.60;59.60;;;;;;5061985;28;20452;-64
2023/01/15 02:58:07;;;;;;;1.77;1.50;;;15.70;59.80;;;;;;5077479;28;20013;-65
2023/01/15 03:00:37;;;;;;;2.22;1.60;;;15.80;60.00;;;;;;5062527;28;20013;-65
2023/01/15 03:03:41;;;;;;;1.77;1.55;;;15.90;60.00;;;;;;5062280;28;20253;-65
2023/01/15 03:06:16;;;;;;;1.67;1.33;;;16.00;59.90;;;;;;5061957;28;20044;-64
2023/01/15 03:08:42;;;;;;;1.70;1.60;;;16.00;59.70;;;;;;5061882;28;20044;-65
2023/01/15 03:11:13;;;;;;;1.90;1.40;;;16.10;59.60;;;;;;5061850;28;20025;-64
2023/01/15 03:13:47;;;;;;;1.73;1.52;;;16.20;59.40;;;;;;5061792;28;20029;-65
2023/01/15 03:16:39;;;;;;;2.17;1.65;;;16.20;59.20;;;;;;5061785;28;20048;-65
2023/01/15 03:19:23;;;;;;;2.00;1.40;;;16.30;59.00;;;;;;5061693;28;20216;-65
2023/01/15 03:22:07;;;;;;;2.22;1.75;;;16.30;58.90;;;;;;5061725;28;20217;-65
2023/01/15 03:24:54;;;;;;;1.73;1.30;;;16.40;58.80;;;;;;5061477;28;20029;-64
2023/01/15 03:27:21;;;;;;;2.15;1.50;;;16.30;58.70;;;;;;5062003;28;20033;-65
2023/01/15 03:29:50;;;;;;;2.50;1.92;;;16.30;58.80;;;;;;5061379;28;20409;-64
2023/01/15 03:32:18;;;;;;;2.65;1.80;;;16.20;58.70;;;;;;5061677;28;20376;-65
2023/01/15 03:34:56;;;;;;;2.40;1.48;;;16.20;58.90;;;;;;5061250;28;20075;-65
2023/01/15 03:37:26;;;;;;;1.95;1.50;;;16.10;59.00;;;;;;5061336;28;20032;-65
2023/01/15 03:39:52;;;;;;;1.55;1.42;;;16.00;59.00;;;;;;5061268;28;20214;-64
2023/01/15 03:42:36;;;;;;;1.83;1.52;;;16.00;59.10;;;;;;5061250;28;20024;-64
2023/01/15 03:45:11;;;;;;;1.38;1.27;;;16.00;59.20;;;;;;5060851;28;20044;-65
2023/01/15 03:47:57;;;;;;;1.92;1.45;;;15.90;59.30;;;;;;5061144;28;20033;-65
2023/01/15 03:50:55;;;;;;;1.65;1.48;;;15.90;59.30;;;;;;5061058;28;20033;-64
2023/01/15 03:53:25;;;;;;;3.25;1.67;;;15.80;59.30;;;;;;5044225;28;20251;-64
2023/01/15 03:56:03;;;;;;;2.05;1.75;;;15.80;59.30;;;;;;5060960;28;20025;-65
2023/01/15 03:58:31;;;;;;;2.83;1.52;;;15.80;59.40;;;;;;5060954;28;20039;-64
2023/01/15 04:00:59;;;;;;;;;;;15.70;59.30;;;;;;5061374;28;20092;-64
2023/01/15 04:03:27;;;;;;;1.65;1.52;;;15.70;59.40;;;;;;5060873;28;19909;-64
2023/01/15 04:05:56;;;;;;;1.90;1.67;;;15.70;59.40;;;;;;5060884;28;20131;-64
2023/01/15 04:08:23;;;;;;;;;;;15.70;59.40;;;;;;5061216;28;20098;-65
2023/01/15 04:10:57;;;;;;;1.48;1.38;;;15.80;59.50;;;;;;5060787;28;19916;-65
2023/01/15 04:13:23;;;;;;;1.73;1.52;;;15.80;59.60;;;;;;5060678;28;20379;-65
2023/01/15 04:15:50;;;;;;;1.92;1.40;;;15.90;59.60;;;;;;5060609;28;20044;-64
2023/01/15 04:18:16;;;;;;;1.77;1.30;;;16.00;59.60;;;;;;5060540;28;20044;-65
2023/01/15 04:20:42;;;;;;;1.70;1.60;;;16.10;59.40;;;;;;5059107;28;20095;-65
2023/01/15 04:23:08;;;;;;;1.70;1.60;;;16.10;59.10;;;;;;5060379;28;20024;-64
2023/01/15 04:25:34;;;;;;;2.17;1.52;;;16.20;59.10;;;;;;5060397;28;20455;-65
2023/01/15 04:27:59;;;;;;;1.70;1.60;;;16.20;58.90;;;;;;5060306;28;20340;-65
2023/01/15 04:30:25;;;;;;;2.00;1.42;;;16.20;58.80;;;;;;5060170;28;20063;-64
2023/01/15 04:32:51;;;;;;;1.45;1.33;;;16.30;58.80;;;;;;5060381;28;20080;-64
2023/01/15 04:35:18;;;;;;;1.88;1.70;;;16.30;58.70;;;;;;5059843;28;20029;-64
2023/01/15 04:37:45;;;;;;;3.25;1.60;;;16.30;58.60;;;;;;5060390;28;20024;-64
2023/01/15 04:45:45;;;;;;;2.10;1.30;;;16.10;58.80;;;;;;5060261;28;20031;-65
2023/01/15 04:48:11;;;;;;;1.42;1.33;;;16.10;58.90;;;;;;5060368;28;20028;-65
2023/01/15 04:50:38;;;;;;;1.83;1.60;;;16.00;59.00;;;;;;5060396;28;20029;-65
2023/01/15 04:53:04;;;;;;;1.95;1.50;;;15.90;59.10;;;;;;5060280;28;20032;-65
2023/01/15 04:55:30;;;;;;;1.55;1.40;;;15.90;59.10;;;;;;5060160;28;20092;-64
2023/01/15 04:57:55;;;;;;;2.20;1.85;;;15.90;59.10;;;;;;5060173;28;20289;-65
2023/01/15 05:00:22;;;;;;;1.70;1.30;;;15.80;59.10;;;;;;5060171;28;20033;-65
2023/01/15 05:02:48;;;;;;;1.52;1.33;;;15.80;59.20;;;;;;5058845;28;20139;-66
2023/01/15 05:05:14;;;;;;;1.40;1.30;;;15.80;59.20;;;;;;5060197;28;20032;-65
2023/01/15 05:07:40;;;;;;;1.30;1.15;;;15.80;59.30;;;;;;5060205;28;20040;-64
2023/01/15 05:10:06;;;;;;;1.15;1.05;;;15.70;59.30;;;;;;5060043;28;20044;-65
2023/01/15 05:12:32;;;;;;;1.88;1.63;;;15.70;59.30;;;;;;5060023;28;20135;-65
2023/01/15 05:14:58;;;;;;;2.30;1.50;;;15.70;59.30;;;;;;5059937;28;20033;-65
2023/01/15 05:17:24;;;;;;;1.77;1.63;;;15.70;59.40;;;;;;5059953;28;20025;-65
2023/01/15 05:19:49;;;;;;;1.20;1.10;;;15.70;59.50;;;;;;5059934;28;20048;-65
2023/01/15 05:22:15;;;;;;;1.13;1.02;;;15.80;59.60;;;;;;5059952;28;20035;-65
2023/01/15 05:24:41;;;;;;;1.67;1.40;;;15.80;59.50;;;;;;5059890;28;20021;-65
2023/01/15 05:27:07;;;;;;;1.65;1.33;;;15.90;59.40;;;;;;5059975;28;20039;-65
2023/01/15 05:29:33;;;;;;;2.22;1.83;;;16.00;59.30;;;;;;5059966;28;20376;-65
2023/01/15 05:31:59;;;;;;;1.52;1.42;;;16.10;59.10;;;;;;5059935;28;20127;-65
2023/01/15 05:34:25;;;;;;;1.70;1.50;;;16.10;58.90;;;;;;5059797;28;20079;-64
2023/01/15 05:36:50;;;;;;;1.63;1.27;;;16.10;58.60;;;;;;5059819;28;20021;-64
2023/01/15 05:39:16;;;;;;;1.75;1.58;;;16.20;58.60;;;;;;5059823;28;20317;-65
2023/01/15 05:41:48;;;;;;;2.13;1.40;;;16.20;58.50;;;;;;5059726;28;20017;-65
2023/01/15 05:44:20;;;;;;;2.78;1.48;;;16.20;58.50;;;;;;5059683;28;20028;-65
2023/01/15 05:46:48;;;;;;;1.83;1.35;;;16.30;58.40;;;;;;5059665;28;20020;-64
2023/01/15 05:49:17;;;;;;;1.88;1.45;;;16.20;58.30;;;;;;5063190;28;20071;-64
2023/01/15 05:51:44;;;;;;;1.95;1.70;;;16.20;58.30;;;;;;5063369;28;20029;-65
2023/01/15 05:54:14;;;;;;;2.05;1.80;;;16.10;58.20;;;;;;5063274;28;20343;-65
2023/01/15 05:56:40;;;;;;;1.38;1.20;;;16.00;58.30;;;;;;5063303;28;20039;-65
2023/01/15 05:59:06;;;;;;;1.42;1.33;;;16.00;58.60;;;;;;5063249;28;20029;-65
2023/01/15 06:01:32;;;;;;;1.63;1.20;;;15.90;58.60;;;;;;5063189;28;20017;-65
2023/01/15 06:04:00;;;;;;;1.42;1.13;;;15.90;58.70;;;;;;5063189;28;20028;-65
2023/01/15 06:06:27;;;;;;;1.70;1.20;;;15.90;58.90;;;;;;5063170;28;20028;-64
2023/01/15 06:08:52;;;;;;;1.92;1.58;;;15.80;59.60;;;;;;5063103;28;20243;-64
2023/01/15 06:11:18;;;;;;;2.05;1.70;;;15.80;59.00;;;;;;5063224;28;20021;-65
2023/01/15 06:13:44;;;;;;;1.38;1.23;;;15.80;59.00;;;;;;5063059;28;20037;-65
2023/01/15 06:16:11;;;;;;;2.08;1.50;;;15.80;59.10;;;;;;5063030;28;20045;-65
2023/01/15 06:18:40;;;;;;;1.85;1.33;;;15.80;59.10;;;;;;5062929;28;20016;-65
2023/01/15 06:21:08;;;;;;;1.65;1.40;;;15.80;59.30;;;;;;5062859;28;20021;-64
2023/01/15 06:23:37;;;;;;;2.08;1.65;;;15.80;59.30;;;;;;5062714;28;20028;-64
2023/01/15 06:26:09;;;;;;;1.45;1.10;;;15.70;59.20;;;;;;5062755;28;20069;-64
2023/01/15 06:28:35;;;;;;;1.73;1.55;;;15.70;59.20;;;;;;5062724;28;20035;-65
2023/01/15 06:31:08;;;;;;;2.15;1.65;;;15.70;59.20;;;;;;5062445;28;20107;-65
2023/01/15 06:33:36;;;;;;;1.67;1.27;;;15.70;59.30;;;;;;5062328;28;20095;-65
2023/01/15 06:36:04;;;;;;;1.45;1.30;;;15.60;59.30;;;;;;5062542;28;20252;-64
2023/01/15 06:38:29;;;;;;;1.98;1.55;;;15.70;59.30;;;;;;5062532;28;20043;-65
2023/01/15 06:41:01;;;;;;;1.77;1.40;;;15.70;59.30;;;;;;5062344;28;20313;-65
2023/01/15 06:48:55;;;;;;;1.52;1.23;;;16.00;59.00;;;;;;5062235;28;20086;-65
2023/01/15 06:51:21;;;;;;;1.65;1.50;;;16.10;58.80;;;;;;5062317;28;20418;-65
2023/01/15 06:53:47;;;;;;;1.35;1.25;;;16.10;58.60;;;;;;5060876;28;20033;-65
2023/01/15 06:56:13;;;;;;;1.92;1.55;;;16.10;58.50;;;;;;5062160;28;20021;-65
2023/01/15 06:58:41;;;;;;;1.73;1.20;;;16.20;58.40;;;;;;5061676;28;20084;-65
2023/01/15 07:01:14;;;;;;;1.80;1.42;;;16.20;58.30;;;;;;5062024;28;20021;-65
2023/01/15 07:03:40;;;;;;;1.85;1.40;;;16.30;58.30;;;;;;5061994;28;20300;-65
2023/01/15 07:06:11;;;;;;;1.83;1.52;;;16.30;58.20;;;;;;5061943;28;20108;-65
2023/01/15 07:08:38;;;;;;;1.00;0.90;;;16.30;58.00;;;;;;5061895;28;20036;-65
2023/01/15 07:11:08;;;;;;;1.50;1.30;;;16.30;57.80;;;;;;5061827;28;20047;-65
2023/01/15 07:13:35;;;;;;;2.28;1.40;;;16.20;58.00;;;;;;5061704;28;20039;-64
2023/01/15 07:16:02;;;;;;;1.60;1.50;;;16.20;58.10;;;;;;5061698;28;20031;-65
2023/01/15 07:18:30;;;;;;;1.42;1.30;;;16.10;58.20;;;;;;5061682;28;20040;-65
2023/01/15 07:20:57;;;;;;;1.60;1.33;;;16.10;58.30;;;;;;5061678;28;20032;-66
2023/01/15 07:23:24;;;;;;;1.42;1.33;;;16.00;58.40;;;;;;5061600;28;20098;-65
2023/01/15 07:25:54;;;;;;;2.10;1.50;;;16.00;58.50;;;;;;5061531;28;20303;-64
2023/01/15 07:28:21;;;;;;;1.67;1.42;;;15.90;58.50;;;;;;5061442;28;20037;-64
2023/01/15 07:30:47;;;;;;;1.70;1.33;;;15.90;58.60;;;;;;5076582;28;20367;-65
2023/01/15 07:33:13;;;;;;;1.73;1.30;;;15.90;58.70;;;;;;5061374;28;20461;-66
2023/01/15 07:35:39;;;;;;;1.13;1.02;;;15.90;58.80;;;;;;5061280;28;20032;-65
2023/01/15 07:38:05;;;;;;;1.52;1.25;;;15.90;58.90;;;;;;5061340;28;20088;-65
2023/01/15 07:40:31;;;;;;;1.65;1.25;;;15.90;58.90;;;;;;5061266;28;20264;-65
2023/01/15 07:51:14;;;;;;;1.60;1.45;;;15.90;58.90;;;;;;5061060;28;20088;-64
2023/01/15 07:53:40;;;;;;;1.70;1.33;;;15.90;58.80;;;;;;5060938;28;20021;-64
2023/01/15 07:56:06;;;;;;;2.17;1.58;;;15.90;58.90;;;;;;5061003;28;20072;-64
2023/01/15 07:58:32;;;;;;;1.63;1.50;;;15.90;58.70;;;;;;5060948;28;20028;-65
2023/01/15 08:00:58;;;;;;;1.33;1.20;;;15.90;58.70;;;;;;5060933;28;20021;-65
2023/01/15 08:03:24;;;;;;;1.77;1.40;;;16.00;59.40;;;;;;5060843;28;20029;-65
2023/01/15 08:05:50;;;;;;;1.63;1.35;;;16.00;58.60;;;;;;5060824;28;20032;-64
2023/01/15 08:08:17;;;;;;;1.65;1.42;;;16.10;58.50;;;;;;5060761;28;20044;-66
2023/01/15 08:16:12;;;;;;;1.90;1.52;;;16.40;57.90;;;;;;5060680;28;20151;-65
2023/01/15 08:18:38;;;;;;;1.38;1.15;;;16.50;57.60;;;;;;5076059;28;20236;-64
2023/01/15 08:21:04;;;;;;;1.38;1.27;;;16.60;57.50;;;;;;5060603;28;20027;-64
2023/01/15 08:23:30;;;;;;;2.38;1.35;;;16.60;57.40;;;;;;5060583;28;20216;-65
2023/01/15 08:26:00;;;;;;;2.13;1.50;;;16.70;57.20;;;;;;5060590;28;20045;-64
2023/01/15 08:28:26;;;;;;;1.50;1.20;;;16.70;57.10;;;;;;5060578;28;20024;-65
2023/01/15 08:30:52;;;;;;;1.48;1.10;;;16.70;56.90;;;;;;5060322;28;20045;-65
2023/01/15 08:33:18;;;;;;;1.20;1.10;;;16.70;57.00;;;;;;5060445;28;20036;-64
2023/01/15 08:35:44;;;;;;;1.20;1.10;;;16.60;57.10;;;;;;5060349;28;20090;-65
2023/01/15 08:38:10;;;;;;;2.45;1.50;;;16.60;57.20;;;;;;5060487;28;20032;-64
2023/01/15 08:40:57;;;;;;;1.73;1.40;;;16.50;57.20;;;;;;5060402;28;20024;-64
2023/01/15 08:43:22;;;;;;;1.95;1.52;;;16.50;57.30;;;;;;5060133;28;20025;-65
2023/01/15 08:45:48;;;;;;;1.88;1.38;;;16.40;57.40;;;;;;5060353;28;20056;-64
2023/01/15 08:48:14;;;;;;;2.83;1.70;;;16.40;57.50;;;;;;5060384;28;20033;-64
2023/01/15 08:50:39;;;;;;;1.88;1.45;;;16.40;57.50;;;;;;5060287;28;20033;-65
2023/01/15 08:53:05;;;;;;;1.67;1.30;;;16.30;57.60;;;;;;5060167;28;20067;-64
2023/01/15 08:55:31;;;;;;;1.88;1.45;;;16.30;57.70;;;;;;5060024;28;20121;-64
2023/01/15 08:57:57;;;;;;;1.58;1.40;;;16.30;57.70;;;;;;5060087;28;20193;-65
2023/01/15 09:00:23;;;;;;;1.52;1.23;;;16.30;57.80;;;;;;5060043;28;20033;-64
2023/01/15 09:02:50;;;;;;;1.55;1.27;;;16.20;57.70;;;;;;5060082;28;20029;-64
2023/01/15 09:05:16;;;;;;;1.90;1.60;;;16.30;57.80;;;;;;5060041;28;20329;-65
2023/01/15 09:07:42;;;;;;;1.30;1.20;;;16.20;57.90;;;;;;5060048;28;20021;-65
2023/01/15 09:10:08;;;;;;;1.30;1.20;;;16.20;57.90;;;;;;5060057;28;20076;-66
2023/01/15 09:12:34;;;;;;;2.05;1.58;;;16.20;58.00;;;;;;5060100;28;20328;-65
2023/01/15 09:15:00;;;;;;;1.65;1.35;;;16.20;57.90;;;;;;5060021;28;20088;-65
2023/01/15 09:17:27;;;;;;;1.40;1.20;;;16.10;57.90;;;;;;5059874;28;20021;-66
2023/01/15 09:19:52;;;;;;;1.65;1.55;;;16.20;58.00;;;;;;5059950;28;20013;-64
2023/01/15 09:22:18;;;;;;;1.83;1.45;;;16.20;58.00;;;;;;5062167;28;20019;-65
2023/01/15 09:24:45;;;;;;;1.70;1.40;;;16.30;58.40;;;;;;5063868;28;20036;-65
2023/01/15 09:27:11;;;;;;;1.35;1.10;;;16.40;57.60;;;;;;5063867;28;20025;-65
2023/01/15 09:29:37;;;;;;;1.40;1.20;;;16.60;57.40;;;;;;5063815;28;20028;-65
2023/01/15 09:32:03;;;;;;;1.65;1.30;;;16.70;57.10;;;;;;5063661;28;20049;-65
2023/01/15 09:34:29;;;;;;;2.30;1.63;;;16.80;56.80;;;;;;5063707;28;20228;-65
2023/01/15 09:36:55;;;;;;;1.38;1.27;;;16.90;56.60;;;;;;5063663;28;20091;-65
2023/01/15 09:39:20;;;;;;;1.35;1.25;;;16.90;56.40;;;;;;5063603;28;20342;-65
2023/01/15 09:42:04;;;;;;;1.90;1.27;;;16.90;56.40;;;;;;5063566;28;20028;-64
2023/01/15 09:44:38;;;;;;;1.67;1.50;;;17.00;56.30;;;;;;5063543;28;20071;-66
2023/01/15 09:47:29;;;;;;;1.40;1.25;;;16.90;56.20;;;;;;5063489;28;20029;-65
2023/01/15 09:50:09;;;;;;;1.00;0.90;;;17.00;56.20;;;;;;5063480;28;20027;-65
2023/01/15 09:52:49;;;;;;;1.27;1.15;;;16.90;56.30;;;;;;5063545;28;20056;-65
2023/01/15 09:55:32;;;;;;;1.58;1.35;;;16.80;56.30;;;;;;5062081;28;20036;-65
2023/01/15 09:58:03;;;;;;;1.20;1.10;;;16.80;56.40;;;;;;5063369;28;20013;-65
2023/01/15 10:00:38;;;;;;;1.30;1.20;;;16.80;56.50;;;;;;5063315;28;20103;-64
2023/01/15 10:03:32;;;;;;;0.90;0.90;;;16.80;56.60;;;;;;5063179;28;20028;-65
2023/01/15 10:06:09;;;;;;;1.50;1.35;;;16.80;56.70;;;;;;5063158;28;20017;-65
2023/01/15 10:08:45;;;;;;;1.52;1.25;;;16.70;56.70;;;;;;5063030;28;20017;-66
2023/01/15 10:11:14;;;;;;;2.28;1.45;;;16.70;56.80;;;;;;5061642;28;20033;-65
2023/01/15 10:13:45;;;;;;;;;;;16.70;56.80;;;;;;5063235;28;20228;-65
2023/01/15 10:16:17;;;;;;;1.88;1.52;;;16.70;56.80;;;;;;5062966;28;20291;-65
2023/01/15 10:18:42;;;;;;;1.55;1.30;;;16.70;56.80;;;;;;5062891;28;20135;-65
2023/01/15 10:21:30;;;;;;;1.85;1.58;;;16.70;56.80;;;;;;5062810;28;20024;-65
2023/01/15 10:24:08;;;;;;;1.50;1.40;;;16.70;56.80;;;;;;5062748;28;20037;-65
2023/01/15 10:26:46;;;;;;;1.63;1.52;;;16.70;56.80;;;;;;5062676;28;20373;-65
2023/01/15 10:29:40;;;;;;;1.47;1.20;;;16.70;56.80;;;;;;5062685;28;20047;-64
2023/01/15 10:32:24;;;;;;;1.70;1.17;;;16.60;56.70;;;;;;5062390;28;20127;-64
2023/01/15 10:34:58;;;;;;;1.85;1.20;;;16.60;56.80;;;;;;5061760;28;20028;-65
2023/01/15 10:37:34;;;;;;;1.67;1.45;;;16.60;56.80;;;;;;5062495;28;20074;-64
2023/01/15 10:40:38;;;;;;;1.55;1.45;;;16.60;56.80;;;;;;5062574;28;20302;-64
2023/01/15 10:43:13;;;;;;;1.77;1.42;;;16.60;56.80;;;;;;5059360;28;20355;-64
2023/01/15 10:45:55;;;;;;;1.48;1.33;;;16.60;56.80;;;;;;5062440;28;20043;-65
2023/01/15 10:48:33;;;;;;;1.85;1.63;;;16.60;56.80;;;;;;5062325;28;20037;-65
2023/01/15 10:51:03;;;;;;;1.27;1.10;;;16.60;56.80;;;;;;5062306;28;20024;-64
2023/01/15 10:53:34;;;;;;;1.50;1.30;;;16.60;56.80;;;;;;5062153;28;20020;-65
2023/01/15 10:56:07;;;;;;;1.52;1.30;;;16.60;56.70;;;;;;5062194;28;20037;-65
2023/01/15 10:58:38;;;;;;;1.60;1.20;;;16.70;56.70;;;;;;5062106;28;20067;-66
2023/01/15 11:01:11;;;;;;;1.58;1.10;;;16.70;56.50;;;;;;5062021;28;20028;-65
2023/01/15 11:03:40;;;;;;;1.88;1.40;;;16.80;56.40;;;;;;5061955;28;20063;-66
2023/01/15 11:06:15;;;;;;;1.30;1.20;;;16.80;56.30;;;;;;5061881;28;20028;-64
2023/01/15 11:08:44;;;;;;;1.23;1.13;;;16.90;56.20;;;;;;5061867;28;20028;-64
2023/01/15 11:11:20;;;;;;;1.67;1.27;;;17.00;56.10;;;;;;5061805;28;20096;-64
2023/01/15 11:19:39;;;;;;;1.80;1.20;;;17.00;56.00;;;;;;5061749;28;20028;-64
2023/01/15 11:22:14;;;;;;;1.45;1.25;;;16.90;56.10;;;;;;5061708;28;20228;-66
2023/01/15 11:24:52;;;;;;;1.73;1.23;;;16.90;56.30;;;;;;5061667;28;20028;-65
2023/01/15 11:27:37;;;;;;;1.35;1.20;;;16.80;56.30;;;;;;5061593;28;20028;-64
2023/01/15 11:30:23;;;;;;;1.20;1.10;;;16.80;56.50;;;;;;5061370;28;20029;-65
2023/01/15 11:32:55;;;;;;;1.30;1.10;;;16.70;56.50;;;;;;5061389;28;20032;-65
2023/01/15 11:35:21;;;;;;;1.42;1.30;;;16.80;56.60;;;;;;5061358;28;20081;-66
2023/01/15 11:37:47;;;;;;;1.42;1.27;;;16.80;56.60;;;;;;5061318;28;20365;-66
2023/01/15 11:40:17;;;;;;;1.77;1.00;;;16.70;56.60;;;;;;5061269;28;20052;-64
2023/01/15 11:51:14;;;;;;;1.13;1.00;;;16.70;56.70;;;;;;5061104;28;20264;-63
2023/01/15 11:53:50;;;;;;;1.77;1.40;;;16.70;56.70;;;;;;5061008;28;20051;-64
2023/01/15 11:56:20;;;;;;;2.47;1.10;;;16.70;56.70;;;;;;5061054;28;20411;-64
2023/01/15 11:59:00;;;;;;;1.52;1.20;;;16.70;56.70;;;;;;5061111;28;20017;-64
2023/01/15 12:01:30;;;;;;;1.25;1.10;;;16.70;56.70;;;;;;5061064;28;20019;-64
2023/01/15 12:03:59;;;;;;;1.45;1.17;;;16.70;56.70;;;;;;5060893;28;20190;-64
2023/01/15 12:06:28;;;;;;;;;;;16.70;56.70;;;;;;5061385;28;20028;-63
2023/01/15 12:09:03;;;;;;;1.55;1.38;;;16.70;56.70;;;;;;5060909;28;19908;-66
2023/01/15 12:11:37;;;;;;;1.90;1.35;;;16.70;56.70;;;;;;5060894;28;20269;-65
2023/01/15 12:14:43;;;;;;;1.38;1.00;;;16.70;56.60;;;;;;5060684;28;20319;-65
2023/01/15 12:17:21;;;;;;;1.23;1.13;;;16.70;56.70;;;;;;5026986;28;20037;-64
2023/01/15 12:20:44;;;;;;;1.88;1.58;;;16.70;56.70;;;;;;5060731;28;20021;-65
2023/01/15 12:23:27;;;;;;;1.30;1.20;;;16.70;56.60;;;;;;4999151;28;20581;-65
2023/01/15 12:26:16;;;;;;;1.38;1.10;;;16.80;56.50;;;;;;4999215;28;20041;-64
2023/01/15 12:29:14;;;;;;;1.17;1.08;;;16.80;56.40;;;;;;5044640;28;20028;-65
2023/01/15 12:31:57;;;;;;;1.27;1.17;;;16.90;56.30;;;;;;5039485;28;20064;-64
2023/01/15 12:34:33;;;;;;;1.63;1.40;;;17.00;56.10;;;;;;5060412;28;20028;-65
2023/01/15 12:37:20;;;;;;;1.15;1.05;;;17.00;56.00;;;;;;5060481;28;20029;-65
2023/01/15 12:39:51;;;;;;;1.33;1.00;;;16.90;56.00;;;;;;5060409;28;20024;-64
2023/01/15 12:45:11;;;;;;;;;;;16.90;56.20;;;;;;5060667;28;20415;-65
2023/01/15 12:47:56;;;;;;;1.40;1.20;;;16.80;56.30;;;;;;5060273;28;20185;-65
2023/01/15 12:50:28;;;;;;;1.80;1.40;;;16.80;56.40;;;;;;5060233;28;20021;-64
2023/01/15 12:53:26;;;;;;;1.52;0.90;;;16.80;56.40;;;;;;5060256;28;20029;-64
2023/01/15 12:56:13;;;;;;;1.38;1.27;;;16.80;56.40;;;;;;5059830;28;20070;-65
2023/01/15 12:58:53;;;;;;;1.27;1.10;;;16.80;56.50;;;;;;5060337;28;20025;-64
2023/01/15 13:01:45;;;;;;;1.60;1.42;;;16.80;56.40;;;;;;5060236;28;20048;-64
2023/01/15 13:04:17;;;;;;;1.40;1.30;;;16.80;56.50;;;;;;5060108;28;20033;-64
2023/01/15 13:06:47;;;;;;;1.23;1.13;;;16.80;56.40;;;;;;5060048;28;20209;-64
2023/01/15 13:09:34;;;;;;;1.30;1.20;;;16.80;56.50;;;;;;5060037;28;20063;-64
2023/01/15 13:12:00;;;;;;;1.50;1.33;;;16.80;56.50;;;;;;5060035;28;20359;-64
2023/01/15 13:14:26;;;;;;;1.27;1.17;;;16.70;56.50;;;;;;5059868;28;20032;-65
2023/01/15 13:17:23;;;;;;;1.73;1.25;;;16.70;56.60;;;;;;5059920;28;20031;-64
2023/01/15 13:20:09;;;;;;;1.75;1.48;;;16.70;56.60;;;;;;5059987;28;20025;-65
2023/01/15 13:22:51;;;;;;;1.75;1.20;;;16.70;56.70;;;;;;5028725;28;20037;-65
2023/01/15 13:25:37;;;;;;;1.55;1.30;;;16.70;56.80;;;;;;5059903;28;20110;-65
2023/01/15 13:28:26;;;;;;;1.42;1.30;;;16.70;56.80;;;;;;5059766;28;20021;-65
2023/01/15 13:31:10;;;;;;;1.52;1.23;;;16.70;56.90;;;;;;5051420;28;20116;-64
2023/01/15 13:33:47;;;;;;;1.52;1.42;;;16.60;56.90;;;;;;5059868;28;20350;-65
2023/01/15 13:36:16;;;;;;;1.20;1.10;;;16.60;56.90;;;;;;5059806;28;20457;-64
2023/01/15 13:38:44;;;;;;;;;;;16.60;57.10;;;;;;5059003;28;20396;-65
2023/01/15 13:42:30;;;;;;;1.73;1.30;;;16.50;57.00;;;;;;5059895;28;19909;-65
2023/01/15 13:44:03;;;;;;;1.42;1.33;;;16.50;57.00;;;;;;5059517;28;20036;-64
2023/01/15 13:46:29;;;;;;;2.28;1.42;;;16.60;57.10;;;;;;5059623;28;20031;-64
2023/01/15 13:48:55;;;;;;;1.52;1.42;;;16.70;57.00;;;;;;5059603;28;20146;-64
2023/01/15 13:51:41;;;;;;;1.17;0.95;;;16.70;56.80;;;;;;5059625;28;20032;-64
2023/01/15 13:54:16;;;;;;;1.38;1.27;;;16.80;56.60;;;;;;5059574;28;20224;-65